Time;durP1;ratioP1;P1;durP2;ratioP2;P2;SDS_P1;SDS_P2;PMS_P1;PMS_P2;Temp;Humidity;BMP_temperature;BMP_pressure;BME280_temperature;BME280_humidity;BME280_pressure;Samples;Min_cycle;Max_cycle;Signal;HPM_P1;HPM_P2
2021/03/24 00:04:42;;;;;;;9.63;4.73;;;;;;;5.77;79.25;101049.28;20789901;28;20816;-64
2021/03/24 00:24:37;;;;;;;5.77;3.80;;;;;;;5.63;80.31;101056.81;20795954;28;20635;-63
2021/03/24 00:44:34;;;;;;;7.33;4.30;;;;;;;5.41;81.41;101065.44;20955185;27;20693;-64
2021/03/24 00:54:34;;;;;;;9.20;4.73;;;;;;;5.32;81.40;101078.91;20948092;28;20233;-64
2021/03/24 01:04:35;;;;;;;8.80;5.63;;;;;;;4.85;83.68;101023.94;20938868;28;20452;-63
2021/03/24 01:14:36;;;;;;;7.10;5.00;;;;;;;4.97;84.76;101065.88;20952953;28;20219;-64
2021/03/24 01:24:36;;;;;;;6.13;4.87;;;;;;;4.89;85.93;101074.06;20930826;28;20222;-64
2021/03/24 01:44:55;;;;;;;9.43;5.20;;;;;;;4.80;87.13;101062.88;21022493;27;21099;-64
2021/03/24 01:54:55;;;;;;;7.13;4.50;;;;;;;4.77;88.00;101062.97;21017719;28;20621;-64
2021/03/24 02:15:06;;;;;;;6.63;4.30;;;;;;;4.67;89.89;101076.44;21035163;27;20648;-63
2021/03/24 02:35:10;;;;;;;7.23;5.10;;;;;;;4.60;90.00;101080.16;21019628;27;20602;-63
2021/03/24 02:45:14;;;;;;;7.80;4.93;;;;;;;4.67;90.00;101084.38;21001179;28;20777;-64
2021/03/24 03:05:13;;;;;;;8.30;4.97;;;;;;;4.68;90.58;101091.41;20887298;27;20588;-66
2021/03/24 03:35:17;;;;;;;9.10;5.60;;;;;;;4.61;91.74;101102.16;20869196;27;20690;-64
2021/03/24 03:55:15;;;;;;;12.40;7.03;;;;;;;4.51;92.34;101108.63;20944785;27;850328;-65
2021/03/24 04:05:19;;;;;;;8.53;6.37;;;;;;;4.47;92.91;101099.88;20944708;28;20731;-65
2021/03/24 04:25:42;;;;;;;7.40;5.67;;;;;;;4.44;93.19;101107.91;20867164;27;20570;-64
2021/03/24 04:45:56;;;;;;;10.77;8.20;;;;;;;4.37;93.95;101119.53;21046288;27;21071;-64
2021/03/24 04:55:59;;;;;;;22.57;14.40;;;;;;;4.37;94.15;101127.47;21036888;27;20299;-64
2021/03/24 05:45:58;;;;;;;7.57;6.17;;;;;;;5.42;90.38;101157.16;20990999;27;20670;-65
2021/03/24 06:06:21;;;;;;;12.87;8.87;;;;;;;5.97;85.00;101168.72;20995289;27;20662;-64
2021/03/24 06:16:30;;;;;;;11.47;8.17;;;;;;;6.16;85.62;101162.84;20824172;28;20314;-62
2021/03/24 06:36:55;;;;;;;10.83;7.47;;;;;;;6.69;82.18;101175.16;20887623;27;845957;-62
2021/03/24 06:47:06;;;;;;;9.80;7.13;;;;;;;7.02;81.69;101188.13;20909978;28;20285;-64
2021/03/24 06:57:19;;;;;;;10.13;8.17;;;;;;;7.18;82.18;101199.94;20922692;28;21101;-65
2021/03/24 07:07:39;;;;;;;13.65;11.18;;;;;;;8.17;75.56;101212.09;20884071;28;20447;-63
2021/03/24 07:17:49;;;;;;;14.07;9.23;;;;;;;7.63;76.74;101220.41;20871879;28;20253;-63
2021/03/24 07:27:49;;;;;;;12.80;7.97;;;;;;;7.63;77.89;101228.38;21010501;28;20235;-62
2021/03/24 07:38:10;;;;;;;12.13;8.80;;;;;;;7.77;76.39;101237.56;21011085;28;20228;-61
2021/03/24 07:48:38;;;;;;;10.80;7.97;;;;;;;8.05;77.75;101242.69;20579089;28;20238;-63
2021/03/24 07:58:38;;;;;;;15.13;9.67;;;;;;;8.10;75.82;101248.66;20584960;28;20236;-64
2021/03/24 08:09:13;;;;;;;10.47;8.23;;;;;;;8.69;72.51;101250.78;20576985;28;20302;-64
2021/03/24 08:19:48;;;;;;;11.93;8.20;;;;;;;9.12;70.18;101254.25;20674337;28;20279;-64
2021/03/24 08:30:08;;;;;;;10.97;8.53;;;;;;;10.04;69.53;101260.69;20977019;28;20250;-65
2021/03/24 08:40:31;;;;;;;9.37;7.03;;;;;;;10.77;65.71;101256.28;20931277;28;20219;-65
2021/03/24 08:50:43;;;;;;;8.63;7.13;;;;;;;11.05;64.60;101215.69;20983815;28;20220;-64
2021/03/24 09:00:56;;;;;;;9.10;8.20;;;;;;;11.46;65.94;101243.78;20916757;28;20225;-65
2021/03/24 09:11:15;;;;;;;11.00;8.07;;;;;;;11.85;63.79;101245.25;20936358;28;20331;-65
2021/03/24 09:21:28;;;;;;;9.10;8.10;;;;;;;12.35;61.95;101217.50;20939440;28;20275;-65
2021/03/24 09:32:02;;;;;;;9.47;8.03;;;;;;;12.42;61.73;101234.94;20936012;28;20778;-64
2021/03/24 09:42:05;;;;;;;10.27;7.83;;;;;;;11.75;66.00;101234.22;20915974;28;20217;-64
2021/03/24 09:52:25;;;;;;;10.13;7.80;;;;;;;11.01;65.64;101225.66;20950325;28;20376;-62
2021/03/24 10:02:34;;;;;;;15.03;10.63;;;;;;;10.07;66.66;101230.34;20925011;28;20222;-64
2021/03/24 10:12:45;;;;;;;10.03;8.43;;;;;;;9.17;72.18;101220.31;20938667;28;20236;-64
2021/03/24 10:22:51;;;;;;;15.10;10.77;;;;;;;9.02;70.80;101216.53;20953014;28;20667;-64
2021/03/24 10:33:05;;;;;;;9.70;7.43;;;;;;;8.88;70.93;101155.03;20905190;28;20266;-63
2021/03/24 10:43:28;;;;;;;10.50;8.83;;;;;;;9.82;69.20;101201.31;20940554;28;20687;-64
2021/03/24 11:03:31;;;;;;;8.80;7.73;;;;;;;10.49;65.61;101198.09;20858989;27;20631;-64
2021/03/24 11:13:37;;;;;;;10.67;7.87;;;;;;;11.75;65.29;101187.84;20759341;28;20228;-65
2021/03/24 11:23:42;;;;;;;8.57;7.77;;;;;;;12.25;62.46;101182.38;20763630;28;20300;-64
2021/03/24 11:33:43;;;;;;;8.97;8.00;;;;;;;11.66;64.73;101188.38;20745460;28;20251;-63
2021/03/24 11:43:44;;;;;;;9.73;7.27;;;;;;;12.08;64.28;101183.31;20777352;28;20262;-65
2021/03/24 11:54:05;;;;;;;11.13;9.10;;;;;;;11.73;60.37;101171.88;20759690;28;20240;-64
2021/03/24 12:04:05;;;;;;;11.33;9.07;;;;;;;11.45;64.89;101177.03;20769324;28;20285;-64
2021/03/24 12:14:20;;;;;;;12.52;8.43;;;;;;;12.07;62.13;101164.72;20717427;28;20233;-64
2021/03/24 12:24:27;;;;;;;8.27;7.43;;;;;;;13.04;59.61;101164.25;20690297;28;20715;-64
2021/03/24 12:34:29;;;;;;;8.03;7.13;;;;;;;13.32;59.59;101158.94;20705887;28;20950;-65
2021/03/24 12:44:41;;;;;;;12.70;9.50;;;;;;;13.06;56.94;101156.09;20690375;28;20240;-65
2021/03/24 12:54:42;;;;;;;12.87;10.03;;;;;;;12.42;59.62;101138.56;20706302;28;20231;-65
2021/03/24 13:04:55;;;;;;;10.63;8.57;;;;;;;10.94;59.81;101096.06;20723831;28;20645;-65
2021/03/24 13:15:13;;;;;;;9.10;8.20;;;;;;;10.32;62.99;101140.22;20716156;28;20294;-64
2021/03/24 13:25:16;;;;;;;10.03;9.03;;;;;;;9.80;65.74;101125.88;20724037;28;20724;-64
2021/03/24 13:35:38;;;;;;;11.60;8.27;;;;;;;9.61;66.03;101131.25;20712101;28;20221;-65
2021/03/24 13:45:49;;;;;;;11.60;7.90;;;;;;;9.52;64.58;101118.34;20719818;28;20236;-65
2021/03/24 13:56:05;;;;;;;13.30;9.50;;;;;;;9.74;62.92;101119.06;20624732;28;20613;-64
2021/03/24 14:06:36;;;;;;;10.43;9.33;;;;;;;9.66;64.23;101109.72;20702376;28;20708;-64
2021/03/24 14:16:41;;;;;;;13.63;10.50;;;;;;;9.05;65.81;101098.38;20720340;28;20582;-64
2021/03/24 14:26:50;;;;;;;12.30;11.07;;;;;;;8.88;67.43;101113.31;20717530;28;20301;-63
2021/03/24 14:47:15;;;;;;;12.50;11.20;;;;;;;8.26;69.59;101098.25;20976445;27;20595;-65
2021/03/24 14:57:44;;;;;;;21.80;17.97;;;;;;;8.04;70.28;101108.03;20937454;28;20268;-65
2021/03/24 15:07:45;;;;;;;24.20;19.57;;;;;;;7.83;72.73;101087.69;20764290;28;20781;-64
2021/03/24 15:18:00;;;;;;;21.63;17.80;;;;;;;7.73;73.73;101091.63;20839172;28;20294;-65
2021/03/24 15:28:11;;;;;;;23.97;17.33;;;;;;;7.28;73.98;101031.44;20833362;28;20779;-64
2021/03/24 15:38:40;;;;;;;23.20;14.63;;;;;;;7.59;74.21;101084.22;20869498;28;20236;-65
2021/03/24 15:58:51;;;;;;;18.27;13.30;;;;;;;7.46;73.74;101078.53;20877403;27;20613;-64
2021/03/24 16:08:57;;;;;;;16.10;12.00;;;;;;;7.44;75.17;101077.72;20784012;28;20934;-65
2021/03/24 16:19:12;;;;;;;22.10;15.53;;;;;;;7.39;75.83;101092.94;20819234;28;21031;-64
2021/03/24 16:29:27;;;;;;;28.30;18.10;;;;;;;7.29;75.50;101088.91;20781849;28;20282;-64
2021/03/24 16:49:45;;;;;;;22.03;13.73;;;;;;;7.07;76.93;101095.97;20812013;27;20701;-67
2021/03/24 17:19:43;;;;;;;33.37;23.17;;;;;;;6.74;79.40;101104.25;20844252;27;20616;-63
2021/03/24 17:29:56;;;;;;;33.60;19.77;;;;;;;6.59;80.49;101096.84;20873276;28;20277;-64
2021/03/24 18:00:17;;;;;;;37.33;21.90;;;;;;;6.30;81.28;101104.91;20813726;27;20648;-63
2021/03/24 18:10:21;;;;;;;33.17;20.10;;;;;;;6.20;81.80;101100.84;20850257;28;20232;-65
2021/03/24 18:30:20;;;;;;;44.73;23.57;;;;;;;5.95;84.10;101117.56;20844178;27;908085;-66
2021/03/24 18:40:23;;;;;;;46.93;26.37;;;;;;;5.87;84.46;101103.69;20863998;28;20296;-65
2021/03/24 18:50:31;;;;;;;38.97;21.93;;;;;;;5.88;84.78;101105.44;20860350;28;20219;-66
2021/03/24 19:10:52;;;;;;;45.47;26.50;;;;;;;5.83;84.83;101109.09;21088796;27;20521;-64
2021/03/24 19:20:59;;;;;;;46.57;25.40;;;;;;;5.87;85.92;101119.56;21125696;28;20225;-68
2021/03/24 19:31:06;;;;;;;54.33;28.90;;;;;;;5.87;85.55;101108.97;21105679;28;20210;-69
2021/03/24 19:51:08;;;;;;;37.67;22.67;;;;;;;5.84;85.31;101109.06;20859042;27;20628;-68
2021/03/24 20:01:15;;;;;;;34.87;20.63;;;;;;;5.85;85.68;101116.09;20874440;28;20637;-69
2021/03/24 20:11:18;;;;;;;38.53;21.90;;;;;;;5.83;86.27;101104.69;20857094;28;20783;-67
2021/03/24 20:21:36;;;;;;;43.53;25.80;;;;;;;5.83;86.56;101106.47;20816990;28;20281;-67
2021/03/24 20:31:54;;;;;;;43.43;25.50;;;;;;;5.84;86.92;101106.41;20817239;28;20215;-66
2021/03/24 20:42:11;;;;;;;33.97;19.37;;;;;;;5.84;89.64;101117.00;20797100;28;20323;-66
2021/03/24 21:12:16;;;;;;;61.27;32.27;;;;;;;5.77;87.27;101092.53;20945924;27;20644;-69
2021/03/24 21:42:10;;;;;;;41.43;24.57;;;;;;;5.95;88.99;101117.56;21102390;27;21078;-68
2021/03/24 22:22:20;;;;;;;45.83;26.30;;;;;;;5.86;89.09;101123.13;21048334;27;21037;-69
2021/03/24 22:52:47;;;;;;;52.57;30.80;;;;;;;5.68;90.93;101123.69;20884781;27;20590;-69
2021/03/24 23:23:18;;;;;;;51.43;32.53;;;;;;;5.36;94.27;101091.16;20907330;27;20642;-69
